sensor_id;sensor_type;location;lat;lon;timestamp;P1;durP1;ratioP1;P2;durP2;ratioP2
75608;SDS011;64194;51.044;13.780;2023-04-24T00:03:28;11.85;;;4.32;;
75608;SDS011;64194;51.044;13.780;2023-04-24T00:07:30;6.35;;;4.35;;
75608;SDS011;64194;51.044;13.780;2023-04-24T00:11:32;7.50;;;3.70;;
75608;SDS011;64194;51.044;13.780;2023-04-24T00:15:34;7.03;;;3.75;;
75608;SDS011;64194;51.044;13.780;2023-04-24T00:19:35;7.72;;;4.20;;
75608;SDS011;64194;51.044;13.780;2023-04-24T00:23:37;7.20;;;3.80;;
75608;SDS011;64194;51.044;13.780;2023-04-24T00:27:39;7.35;;;4.35;;
75608;SDS011;64194;51.044;13.780;2023-04-24T00:31:40;7.25;;;3.83;;
75608;SDS011;64194;51.044;13.780;2023-04-24T00:35:42;6.70;;;3.85;;
75608;SDS011;64194;51.044;13.780;2023-04-24T00:39:44;10.52;;;4.55;;
75608;SDS011;64194;51.044;13.780;2023-04-24T00:43:46;7.43;;;4.00;;
75608;SDS011;64194;51.044;13.780;2023-04-24T00:47:48;7.85;;;4.70;;
75608;SDS011;64194;51.044;13.780;2023-04-24T00:51:50;8.45;;;4.78;;
75608;SDS011;64194;51.044;13.780;2023-04-24T00:55:52;6.72;;;4.03;;
75608;SDS011;64194;51.044;13.780;2023-04-24T00:59:54;7.43;;;4.47;;
75608;SDS011;64194;51.044;13.780;2023-04-24T01:03:56;8.82;;;4.68;;
75608;SDS011;64194;51.044;13.780;2023-04-24T01:07:59;6.50;;;3.70;;
75608;SDS011;64194;51.044;13.780;2023-04-24T01:12:01;6.57;;;3.47;;
75608;SDS011;64194;51.044;13.780;2023-04-24T01:16:02;6.65;;;4.43;;
75608;SDS011;64194;51.044;13.780;2023-04-24T01:20:04;10.43;;;5.45;;
75608;SDS011;64194;51.044;13.780;2023-04-24T01:24:07;7.20;;;3.83;;
75608;SDS011;64194;51.044;13.780;2023-04-24T01:28:09;7.53;;;4.13;;
75608;SDS011;64194;51.044;13.780;2023-04-24T01:32:12;9.38;;;4.75;;
75608;SDS011;64194;51.044;13.780;2023-04-24T01:36:14;7.45;;;4.20;;
75608;SDS011;64194;51.044;13.780;2023-04-24T01:40:17;6.70;;;3.70;;
75608;SDS011;64194;51.044;13.780;2023-04-24T01:44:19;7.70;;;4.57;;
75608;SDS011;64194;51.044;13.780;2023-04-24T01:48:21;8.10;;;4.05;;
75608;SDS011;64194;51.044;13.780;2023-04-24T01:52:23;6.75;;;4.13;;
75608;SDS011;64194;51.044;13.780;2023-04-24T01:56:26;7.78;;;4.30;;
75608;SDS011;64194;51.044;13.780;2023-04-24T02:00:30;7.88;;;5.30;;
75608;SDS011;64194;51.044;13.780;2023-04-24T02:04:32;7.65;;;4.95;;
75608;SDS011;64194;51.044;13.780;2023-04-24T02:08:33;7.68;;;4.60;;
75608;SDS011;64194;51.044;13.780;2023-04-24T02:12:35;8.13;;;4.43;;
75608;SDS011;64194;51.044;13.780;2023-04-24T02:16:37;7.55;;;4.43;;
75608;SDS011;64194;51.044;13.780;2023-04-24T02:20:39;9.25;;;4.78;;
75608;SDS011;64194;51.044;13.780;2023-04-24T02:24:40;8.73;;;4.30;;
75608;SDS011;64194;51.044;13.780;2023-04-24T02:28:42;8.73;;;5.15;;
75608;SDS011;64194;51.044;13.780;2023-04-24T02:32:44;7.80;;;4.97;;
75608;SDS011;64194;51.044;13.780;2023-04-24T02:36:46;7.63;;;4.57;;
75608;SDS011;64194;51.044;13.780;2023-04-24T02:40:48;7.45;;;4.70;;
75608;SDS011;64194;51.044;13.780;2023-04-24T02:44:50;8.98;;;4.75;;
75608;SDS011;64194;51.044;13.780;2023-04-24T02:48:52;7.78;;;4.70;;
75608;SDS011;64194;51.044;13.780;2023-04-24T02:52:54;7.15;;;4.65;;
75608;SDS011;64194;51.044;13.780;2023-04-24T02:56:56;7.88;;;4.88;;
75608;SDS011;64194;51.044;13.780;2023-04-24T03:00:58;7.68;;;5.15;;
75608;SDS011;64194;51.044;13.780;2023-04-24T03:04:59;7.65;;;4.60;;
75608;SDS011;64194;51.044;13.780;2023-04-24T03:09:01;7.68;;;4.70;;
75608;SDS011;64194;51.044;13.780;2023-04-24T03:13:02;7.55;;;4.40;;
75608;SDS011;64194;51.044;13.780;2023-04-24T03:17:04;9.02;;;4.90;;
75608;SDS011;64194;51.044;13.780;2023-04-24T03:21:06;8.25;;;4.82;;
75608;SDS011;64194;51.044;13.780;2023-04-24T03:25:08;8.82;;;4.53;;
75608;SDS011;64194;51.044;13.780;2023-04-24T03:29:11;9.05;;;5.03;;
75608;SDS011;64194;51.044;13.780;2023-04-24T03:33:13;8.15;;;4.75;;
75608;SDS011;64194;51.044;13.780;2023-04-24T03:52:26;8.38;;;4.90;;
75608;SDS011;64194;51.044;13.780;2023-04-24T03:56:28;7.53;;;4.85;;
75608;SDS011;64194;51.044;13.780;2023-04-24T04:05:33;8.95;;;4.65;;
75608;SDS011;64194;51.044;13.780;2023-04-24T04:09:35;7.70;;;4.45;;
75608;SDS011;64194;51.044;13.780;2023-04-24T04:18:30;7.88;;;4.50;;
75608;SDS011;64194;51.044;13.780;2023-04-24T04:22:32;7.53;;;4.38;;
75608;SDS011;64194;51.044;13.780;2023-04-24T04:31:37;9.82;;;4.82;;
75608;SDS011;64194;51.044;13.780;2023-04-24T04:35:44;6.85;;;3.40;;
75608;SDS011;64194;51.044;13.780;2023-04-24T04:49:49;4.18;;;2.15;;
75608;SDS011;64194;51.044;13.780;2023-04-24T04:54:42;6.35;;;2.65;;
75608;SDS011;64194;51.044;13.780;2023-04-24T04:58:45;4.60;;;1.67;;
75608;SDS011;64194;51.044;13.780;2023-04-24T05:02:50;3.33;;;1.60;;
75608;SDS011;64194;51.044;13.780;2023-04-24T05:17:48;4.22;;;1.60;;
75608;SDS011;64194;51.044;13.780;2023-04-24T05:21:55;4.93;;;1.67;;
75608;SDS011;64194;51.044;13.780;2023-04-24T05:25:57;4.47;;;1.70;;
75608;SDS011;64194;51.044;13.780;2023-04-24T05:29:59;5.75;;;2.35;;
75608;SDS011;64194;51.044;13.780;2023-04-24T05:34:00;6.38;;;2.95;;
75608;SDS011;64194;51.044;13.780;2023-04-24T05:38:02;4.43;;;2.00;;
75608;SDS011;64194;51.044;13.780;2023-04-24T05:48:07;4.35;;;1.83;;
75608;SDS011;64194;51.044;13.780;2023-04-24T05:52:11;3.50;;;1.50;;
75608;SDS011;64194;51.044;13.780;2023-04-24T05:56:19;3.92;;;2.00;;
75608;SDS011;64194;51.044;13.780;2023-04-24T06:00:47;4.03;;;1.63;;
75608;SDS011;64194;51.044;13.780;2023-04-24T06:04:58;6.35;;;2.10;;
75608;SDS011;64194;51.044;13.780;2023-04-24T06:09:01;5.05;;;1.52;;
75608;SDS011;64194;51.044;13.780;2023-04-24T06:13:03;3.05;;;1.10;;
75608;SDS011;64194;51.044;13.780;2023-04-24T06:27:30;2.03;;;1.00;;
75608;SDS011;64194;51.044;13.780;2023-04-24T06:31:31;3.28;;;0.80;;
75608;SDS011;64194;51.044;13.780;2023-04-24T06:35:38;3.08;;;1.00;;
75608;SDS011;64194;51.044;13.780;2023-04-24T06:48:51;2.67;;;1.00;;
75608;SDS011;64194;51.044;13.780;2023-04-24T06:53:13;2.80;;;0.90;;
75608;SDS011;64194;51.044;13.780;2023-04-24T06:57:34;2.42;;;0.80;;
75608;SDS011;64194;51.044;13.780;2023-04-24T07:01:50;4.05;;;1.00;;
75608;SDS011;64194;51.044;13.780;2023-04-24T07:29:59;2.70;;;0.93;;
75608;SDS011;64194;51.044;13.780;2023-04-24T07:43:21;2.33;;;1.02;;
75608;SDS011;64194;51.044;13.780;2023-04-24T07:47:24;2.78;;;0.80;;
75608;SDS011;64194;51.044;13.780;2023-04-24T07:51:26;2.30;;;0.70;;
75608;SDS011;64194;51.044;13.780;2023-04-24T07:55:50;3.38;;;0.77;;
75608;SDS011;64194;51.044;13.780;2023-04-24T07:59:56;3.30;;;0.80;;
75608;SDS011;64194;51.044;13.780;2023-04-24T08:03:57;3.03;;;0.75;;
75608;SDS011;64194;51.044;13.780;2023-04-24T08:07:59;2.83;;;0.70;;
75608;SDS011;64194;51.044;13.780;2023-04-24T08:21:29;1.27;;;0.55;;
75608;SDS011;64194;51.044;13.780;2023-04-24T08:25:31;3.25;;;0.65;;
75608;SDS011;64194;51.044;13.780;2023-04-24T08:29:33;2.53;;;0.70;;
75608;SDS011;64194;51.044;13.780;2023-04-24T08:33:41;2.15;;;0.77;;
75608;SDS011;64194;51.044;13.780;2023-04-24T08:37:43;1.48;;;0.77;;
75608;SDS011;64194;51.044;13.780;2023-04-24T08:41:46;2.55;;;0.63;;
75608;SDS011;64194;51.044;13.780;2023-04-24T08:46:09;1.63;;;0.60;;
75608;SDS011;64194;51.044;13.780;2023-04-24T08:50:13;2.85;;;0.70;;
75608;SDS011;64194;51.044;13.780;2023-04-24T08:59:08;1.85;;;0.80;;
75608;SDS011;64194;51.044;13.780;2023-04-24T09:03:15;3.38;;;0.60;;
75608;SDS011;64194;51.044;13.780;2023-04-24T09:07:56;2.42;;;0.68;;
75608;SDS011;64194;51.044;13.780;2023-04-24T09:12:41;2.15;;;0.70;;
75608;SDS011;64194;51.044;13.780;2023-04-24T09:16:45;3.15;;;0.70;;
75608;SDS011;64194;51.044;13.780;2023-04-24T09:21:13;3.47;;;0.80;;
75608;SDS011;64194;51.044;13.780;2023-04-24T09:25:18;1.90;;;0.73;;
75608;SDS011;64194;51.044;13.780;2023-04-24T09:29:22;1.85;;;0.60;;
75608;SDS011;64194;51.044;13.780;2023-04-24T09:33:59;2.90;;;0.90;;
75608;SDS011;64194;51.044;13.780;2023-04-24T09:38:11;1.67;;;0.80;;
75608;SDS011;64194;51.044;13.780;2023-04-24T09:42:13;2.53;;;0.80;;
75608;SDS011;64194;51.044;13.780;2023-04-24T09:46:49;2.10;;;0.73;;
75608;SDS011;64194;51.044;13.780;2023-04-24T09:51:13;2.72;;;0.75;;
75608;SDS011;64194;51.044;13.780;2023-04-24T09:55:38;4.40;;;1.30;;
75608;SDS011;64194;51.044;13.780;2023-04-24T10:00:01;3.20;;;1.02;;
75608;SDS011;64194;51.044;13.780;2023-04-24T10:04:27;3.58;;;0.95;;
75608;SDS011;64194;51.044;13.780;2023-04-24T10:08:33;8.73;;;2.95;;
75608;SDS011;64194;51.044;13.780;2023-04-24T10:12:57;1.50;;;0.60;;
75608;SDS011;64194;51.044;13.780;2023-04-24T10:16:59;2.47;;;0.60;;
75608;SDS011;64194;51.044;13.780;2023-04-24T10:34:52;1.95;;;0.77;;
75608;SDS011;64194;51.044;13.780;2023-04-24T10:38:55;3.78;;;1.08;;
75608;SDS011;64194;51.044;13.780;2023-04-24T10:42:59;3.75;;;1.20;;
75608;SDS011;64194;51.044;13.780;2023-04-24T10:47:13;3.20;;;0.85;;
75608;SDS011;64194;51.044;13.780;2023-04-24T10:51:25;5.60;;;1.20;;
75608;SDS011;64194;51.044;13.780;2023-04-24T10:56:15;1.35;;;0.68;;
75608;SDS011;64194;51.044;13.780;2023-04-24T11:00:21;3.58;;;0.88;;
75608;SDS011;64194;51.044;13.780;2023-04-24T11:04:49;3.95;;;0.93;;
75608;SDS011;64194;51.044;13.780;2023-04-24T11:08:52;2.40;;;0.80;;
75608;SDS011;64194;51.044;13.780;2023-04-24T11:18:02;4.13;;;0.90;;
75608;SDS011;64194;51.044;13.780;2023-04-24T11:22:13;2.35;;;0.65;;
75608;SDS011;64194;51.044;13.780;2023-04-24T11:26:32;1.90;;;0.70;;
75608;SDS011;64194;51.044;13.780;2023-04-24T11:30:58;1.52;;;0.63;;
75608;SDS011;64194;51.044;13.780;2023-04-24T11:35:19;1.58;;;0.70;;
75608;SDS011;64194;51.044;13.780;2023-04-24T11:39:42;2.03;;;0.60;;
75608;SDS011;64194;51.044;13.780;2023-04-24T11:43:44;2.60;;;1.10;;
75608;SDS011;64194;51.044;13.780;2023-04-24T11:47:50;2.42;;;0.70;;
75608;SDS011;64194;51.044;13.780;2023-04-24T11:51:55;3.72;;;0.70;;
75608;SDS011;64194;51.044;13.780;2023-04-24T11:56:04;3.42;;;1.13;;
75608;SDS011;64194;51.044;13.780;2023-04-24T12:00:17;3.17;;;0.88;;
75608;SDS011;64194;51.044;13.780;2023-04-24T12:04:58;2.92;;;0.82;;
75608;SDS011;64194;51.044;13.780;2023-04-24T12:09:04;2.67;;;0.80;;
75608;SDS011;64194;51.044;13.780;2023-04-24T12:13:20;4.00;;;1.20;;
75608;SDS011;64194;51.044;13.780;2023-04-24T12:17:30;2.42;;;0.88;;
75608;SDS011;64194;51.044;13.780;2023-04-24T12:21:33;4.18;;;1.13;;
75608;SDS011;64194;51.044;13.780;2023-04-24T12:25:35;2.88;;;0.88;;
75608;SDS011;64194;51.044;13.780;2023-04-24T12:34:19;2.75;;;0.93;;
75608;SDS011;64194;51.044;13.780;2023-04-24T13:01:15;2.03;;;0.90;;
75608;SDS011;64194;51.044;13.780;2023-04-24T13:05:33;3.00;;;1.00;;
75608;SDS011;64194;51.044;13.780;2023-04-24T13:25:16;2.10;;;0.80;;
75608;SDS011;64194;51.044;13.780;2023-04-24T13:29:22;2.40;;;0.80;;
75608;SDS011;64194;51.044;13.780;2023-04-24T13:33:24;3.33;;;1.00;;
75608;SDS011;64194;51.044;13.780;2023-04-24T13:37:26;2.92;;;1.10;;
75608;SDS011;64194;51.044;13.780;2023-04-24T13:41:27;3.60;;;1.20;;
75608;SDS011;64194;51.044;13.780;2023-04-24T13:45:29;3.45;;;1.08;;
75608;SDS011;64194;51.044;13.780;2023-04-24T13:49:31;2.90;;;0.93;;
75608;SDS011;64194;51.044;13.780;2023-04-24T13:53:33;2.25;;;0.80;;
75608;SDS011;64194;51.044;13.780;2023-04-24T13:57:37;2.80;;;0.93;;
75608;SDS011;64194;51.044;13.780;2023-04-24T14:01:39;5.38;;;2.35;;
75608;SDS011;64194;51.044;13.780;2023-04-24T14:05:40;3.75;;;1.20;;
75608;SDS011;64194;51.044;13.780;2023-04-24T14:09:42;3.20;;;1.10;;
75608;SDS011;64194;51.044;13.780;2023-04-24T14:23:28;1.90;;;0.90;;
75608;SDS011;64194;51.044;13.780;2023-04-24T14:27:30;2.17;;;0.85;;
75608;SDS011;64194;51.044;13.780;2023-04-24T14:31:33;3.55;;;1.00;;
75608;SDS011;64194;51.044;13.780;2023-04-24T14:35:35;3.72;;;1.80;;
75608;SDS011;64194;51.044;13.780;2023-04-24T14:39:37;3.17;;;1.20;;
75608;SDS011;64194;51.044;13.780;2023-04-24T14:53:06;2.50;;;1.30;;
75608;SDS011;64194;51.044;13.780;2023-04-24T14:57:08;3.35;;;1.17;;
75608;SDS011;64194;51.044;13.780;2023-04-24T15:01:10;2.97;;;1.00;;
75608;SDS011;64194;51.044;13.780;2023-04-24T15:05:12;3.85;;;1.20;;
75608;SDS011;64194;51.044;13.780;2023-04-24T15:09:14;4.50;;;1.40;;
75608;SDS011;64194;51.044;13.780;2023-04-24T15:13:16;3.22;;;1.10;;
75608;SDS011;64194;51.044;13.780;2023-04-24T15:17:17;3.10;;;1.20;;
75608;SDS011;64194;51.044;13.780;2023-04-24T15:21:19;2.88;;;1.10;;
75608;SDS011;64194;51.044;13.780;2023-04-24T15:25:21;3.70;;;1.15;;
75608;SDS011;64194;51.044;13.780;2023-04-24T15:29:22;2.80;;;1.00;;
75608;SDS011;64194;51.044;13.780;2023-04-24T15:33:24;4.15;;;1.10;;
75608;SDS011;64194;51.044;13.780;2023-04-24T15:37:27;1.85;;;0.95;;
75608;SDS011;64194;51.044;13.780;2023-04-24T15:41:30;3.42;;;1.20;;
75608;SDS011;64194;51.044;13.780;2023-04-24T15:45:45;4.30;;;1.10;;
75608;SDS011;64194;51.044;13.780;2023-04-24T15:49:47;3.47;;;1.30;;
75608;SDS011;64194;51.044;13.780;2023-04-24T15:53:51;5.10;;;1.02;;
75608;SDS011;64194;51.044;13.780;2023-04-24T16:07:37;4.10;;;1.50;;
75608;SDS011;64194;51.044;13.780;2023-04-24T16:11:40;2.72;;;1.15;;
75608;SDS011;64194;51.044;13.780;2023-04-24T16:15:44;4.15;;;1.30;;
75608;SDS011;64194;51.044;13.780;2023-04-24T16:19:49;3.28;;;1.10;;
75608;SDS011;64194;51.044;13.780;2023-04-24T16:23:51;3.33;;;1.10;;
75608;SDS011;64194;51.044;13.780;2023-04-24T16:27:52;2.30;;;1.10;;
75608;SDS011;64194;51.044;13.780;2023-04-24T16:32:12;2.53;;;1.20;;
75608;SDS011;64194;51.044;13.780;2023-04-24T16:36:14;3.97;;;1.73;;
75608;SDS011;64194;51.044;13.780;2023-04-24T16:40:17;2.63;;;1.10;;
75608;SDS011;64194;51.044;13.780;2023-04-24T16:53:46;4.82;;;1.25;;
75608;SDS011;64194;51.044;13.780;2023-04-24T17:03:43;4.00;;;1.00;;
75608;SDS011;64194;51.044;13.780;2023-04-24T17:08:05;3.80;;;1.13;;
75608;SDS011;64194;51.044;13.780;2023-04-24T17:12:47;2.60;;;1.00;;
75608;SDS011;64194;51.044;13.780;2023-04-24T17:17:08;3.53;;;1.00;;
75608;SDS011;64194;51.044;13.780;2023-04-24T17:21:10;3.67;;;1.30;;
75608;SDS011;64194;51.044;13.780;2023-04-24T17:25:12;2.33;;;0.90;;
75608;SDS011;64194;51.044;13.780;2023-04-24T17:29:16;2.08;;;1.10;;
75608;SDS011;64194;51.044;13.780;2023-04-24T17:33:22;2.53;;;1.00;;
75608;SDS011;64194;51.044;13.780;2023-04-24T17:37:25;2.28;;;0.90;;
75608;SDS011;64194;51.044;13.780;2023-04-24T17:41:47;4.20;;;1.08;;
75608;SDS011;64194;51.044;13.780;2023-04-24T17:45:49;3.03;;;0.82;;
75608;SDS011;64194;51.044;13.780;2023-04-24T17:49:59;3.05;;;1.02;;
75608;SDS011;64194;51.044;13.780;2023-04-24T18:03:55;1.67;;;0.60;;
75608;SDS011;64194;51.044;13.780;2023-04-24T18:08:17;1.75;;;0.50;;
75608;SDS011;64194;51.044;13.780;2023-04-24T18:12:22;2.10;;;0.70;;
75608;SDS011;64194;51.044;13.780;2023-04-24T18:16:44;2.10;;;0.80;;
75608;SDS011;64194;51.044;13.780;2023-04-24T18:20:49;2.35;;;0.77;;
75608;SDS011;64194;51.044;13.780;2023-04-24T18:24:50;0.73;;;0.40;;
75608;SDS011;64194;51.044;13.780;2023-04-24T18:42:41;2.72;;;0.70;;
75608;SDS011;64194;51.044;13.780;2023-04-24T18:46:44;1.02;;;0.57;;
75608;SDS011;64194;51.044;13.780;2023-04-24T18:50:46;3.88;;;0.88;;
75608;SDS011;64194;51.044;13.780;2023-04-24T18:54:48;2.70;;;0.75;;
75608;SDS011;64194;51.044;13.780;2023-04-24T18:58:50;5.70;;;1.33;;
75608;SDS011;64194;51.044;13.780;2023-04-24T19:02:59;2.10;;;0.65;;
75608;SDS011;64194;51.044;13.780;2023-04-24T19:07:03;5.18;;;0.90;;
75608;SDS011;64194;51.044;13.780;2023-04-24T19:20:33;1.95;;;0.80;;
75608;SDS011;64194;51.044;13.780;2023-04-24T19:24:37;1.90;;;0.80;;
75608;SDS011;64194;51.044;13.780;2023-04-24T19:28:38;1.30;;;0.70;;
75608;SDS011;64194;51.044;13.780;2023-04-24T19:32:40;2.75;;;1.00;;
75608;SDS011;64194;51.044;13.780;2023-04-24T19:36:49;2.38;;;0.90;;
75608;SDS011;64194;51.044;13.780;2023-04-24T19:40:51;3.67;;;1.00;;
75608;SDS011;64194;51.044;13.780;2023-04-24T19:44:54;2.80;;;0.98;;
75608;SDS011;64194;51.044;13.780;2023-04-24T19:49:17;2.28;;;1.00;;
75608;SDS011;64194;51.044;13.780;2023-04-24T19:53:19;2.60;;;1.08;;
75608;SDS011;64194;51.044;13.780;2023-04-24T19:57:21;2.58;;;0.88;;
75608;SDS011;64194;51.044;13.780;2023-04-24T20:01:24;4.00;;;1.27;;
75608;SDS011;64194;51.044;13.780;2023-04-24T20:05:26;2.55;;;1.17;;
75608;SDS011;64194;51.044;13.780;2023-04-24T20:09:51;2.67;;;1.00;;
75608;SDS011;64194;51.044;13.780;2023-04-24T20:13:53;2.50;;;1.13;;
75608;SDS011;64194;51.044;13.780;2023-04-24T20:17:58;2.50;;;1.15;;
75608;SDS011;64194;51.044;13.780;2023-04-24T20:22:02;3.60;;;1.42;;
75608;SDS011;64194;51.044;13.780;2023-04-24T20:26:03;3.03;;;1.30;;
75608;SDS011;64194;51.044;13.780;2023-04-24T20:30:26;3.67;;;1.88;;
75608;SDS011;64194;51.044;13.780;2023-04-24T20:34:27;3.20;;;1.40;;
75608;SDS011;64194;51.044;13.780;2023-04-24T20:47:31;3.22;;;1.42;;
75608;SDS011;64194;51.044;13.780;2023-04-24T20:51:47;3.33;;;1.50;;
75608;SDS011;64194;51.044;13.780;2023-04-24T20:55:49;3.75;;;1.75;;
75608;SDS011;64194;51.044;13.780;2023-04-24T20:59:51;3.40;;;1.40;;
75608;SDS011;64194;51.044;13.780;2023-04-24T21:03:53;4.95;;;2.05;;
75608;SDS011;64194;51.044;13.780;2023-04-24T21:07:55;4.32;;;1.67;;
75608;SDS011;64194;51.044;13.780;2023-04-24T21:11:57;5.60;;;2.10;;
75608;SDS011;64194;51.044;13.780;2023-04-24T21:16:07;6.22;;;1.83;;
75608;SDS011;64194;51.044;13.780;2023-04-24T21:29:48;4.72;;;2.00;;
75608;SDS011;64194;51.044;13.780;2023-04-24T21:33:54;7.28;;;2.28;;
75608;SDS011;64194;51.044;13.780;2023-04-24T21:47:43;4.78;;;1.95;;
75608;SDS011;64194;51.044;13.780;2023-04-24T21:51:52;4.82;;;2.15;;
75608;SDS011;64194;51.044;13.780;2023-04-24T22:00:21;5.07;;;1.90;;
75608;SDS011;64194;51.044;13.780;2023-04-24T22:08:59;5.28;;;2.00;;
75608;SDS011;64194;51.044;13.780;2023-04-24T22:13:02;3.90;;;1.70;;
75608;SDS011;64194;51.044;13.780;2023-04-24T22:17:03;6.30;;;2.13;;
75608;SDS011;64194;51.044;13.780;2023-04-24T22:21:07;4.70;;;2.30;;
75608;SDS011;64194;51.044;13.780;2023-04-24T22:34:18;4.47;;;1.85;;
75608;SDS011;64194;51.044;13.780;2023-04-24T22:38:20;4.53;;;2.05;;
75608;SDS011;64194;51.044;13.780;2023-04-24T22:47:01;5.15;;;2.38;;
75608;SDS011;64194;51.044;13.780;2023-04-24T22:51:08;5.80;;;2.40;;
75608;SDS011;64194;51.044;13.780;2023-04-24T22:55:10;4.95;;;2.00;;
75608;SDS011;64194;51.044;13.780;2023-04-24T22:59:12;5.78;;;2.30;;
75608;SDS011;64194;51.044;13.780;2023-04-24T23:03:14;4.70;;;2.28;;
75608;SDS011;64194;51.044;13.780;2023-04-24T23:07:16;5.10;;;2.50;;
75608;SDS011;64194;51.044;13.780;2023-04-24T23:11:18;6.72;;;3.75;;
75608;SDS011;64194;51.044;13.780;2023-04-24T23:15:22;6.95;;;3.75;;
75608;SDS011;64194;51.044;13.780;2023-04-24T23:24:00;6.60;;;2.45;;
75608;SDS011;64194;51.044;13.780;2023-04-24T23:37:06;6.82;;;4.28;;
75608;SDS011;64194;51.044;13.780;2023-04-24T23:41:08;6.07;;;2.40;;
75608;SDS011;64194;51.044;13.780;2023-04-24T23:45:10;5.20;;;2.72;;
75608;SDS011;64194;51.044;13.780;2023-04-24T23:49:12;5.63;;;2.90;;
75608;SDS011;64194;51.044;13.780;2023-04-24T23:53:30;5.38;;;3.10;;
